Terminal Aerodrome Forecast
Issued by NWS

Home | Current Version | Previous Version | Text Only | Print | Product List | Glossary On
Versions: 1 2 3 4 5 6 7 8 9 10 11 12
000
FTUS43 KGRB 251725
TAFCWA
TAF
KCWA 251725Z 2518/2618 19005KT P6SM SCT070 BKN250
     FM252200 22007KT P6SM VCTS BKN070CB
     FM260200 VRB03KT P6SM VCSH BKN040 OVC100
     FM260500 VRB03KT P6SM SCT040 OVC100
      TEMPO 2605/2609 4SM -SHRA BR
     FM260900 11003KT 4SM BR VCSH BKN009 OVC030
     FM261300 18003KT 5SM BR VCSH OVC007
     FM261600 24007KT P6SM VCSH OVC012=

USA.gov is the U.S. government's official web portal to all federal, state and local government web resources and services.